Terminal Aerodrome Forecast
Issued by NWS

Home | Current Version | Previous Version | Text Only | Print | Product List | Glossary On
Versions: 1 2 3 4 5 6 7 8 9 10 11 12 13 14 15 16 17 18 19 20 21 22 23 24 25 26 27 28 29 30 31 32 33 34 35 36
000
FTUS44 KHGX 221728
TAFSGR
TAF
KSGR 221728Z 2218/2318 30003KT P6SM SCT040 SCT070 BKN250
     FM222100 17006KT P6SM VCTS SCT040CB SCT250
     FM230100 18005KT P6SM SCT250
     FM230900 VRB03KT P6SM SCT015 BKN250
      TEMPO 2311/2314 BKN020=

USA.gov is the U.S. government's official web portal to all federal, state and local government web resources and services.